sensor_id;sensor_type;location;lat;lon;timestamp;temperature;humidity
3923;DHT22;1976;51.694;6.256;2023-06-10T11:07:36;49.70;28.60
3923;DHT22;1976;51.694;6.256;2023-06-10T11:10:12;50.10;28.70
3923;DHT22;1976;51.694;6.256;2023-06-10T11:15:11;50.60;28.20
3923;DHT22;1976;51.694;6.256;2023-06-10T11:17:37;50.40;26.90
3923;DHT22;1976;51.694;6.256;2023-06-10T11:20:03;49.80;26.70
3923;DHT22;1976;51.694;6.256;2023-06-10T11:22:29;49.70;27.10
3923;DHT22;1976;51.694;6.256;2023-06-10T11:24:55;49.90;26.30
3923;DHT22;1976;51.694;6.256;2023-06-10T11:27:22;49.70;25.80
3923;DHT22;1976;51.694;6.256;2023-06-10T11:32:30;49.60;26.60
3923;DHT22;1976;51.694;6.256;2023-06-10T11:34:59;49.60;27.00
3923;DHT22;1976;51.694;6.256;2023-06-10T11:37:25;50.30;25.70
3923;DHT22;1976;51.694;6.256;2023-06-10T11:39:54;49.70;25.30
3923;DHT22;1976;51.694;6.256;2023-06-10T11:42:24;49.30;25.10
3923;DHT22;1976;51.694;6.256;2023-06-10T11:44:50;49.10;26.00
3923;DHT22;1976;51.694;6.256;2023-06-10T11:47:17;49.80;26.10
3923;DHT22;1976;51.694;6.256;2023-06-10T11:49:43;50.30;26.00
3923;DHT22;1976;51.694;6.256;2023-06-10T11:52:09;50.80;25.20
3923;DHT22;1976;51.694;6.256;2023-06-10T11:54:36;51.00;25.20
3923;DHT22;1976;51.694;6.256;2023-06-10T11:57:02;51.10;25.70
3923;DHT22;1976;51.694;6.256;2023-06-10T11:59:31;51.30;25.30
3923;DHT22;1976;51.694;6.256;2023-06-10T12:01:56;51.20;24.80
3923;DHT22;1976;51.694;6.256;2023-06-10T12:04:22;51.10;24.60
3923;DHT22;1976;51.694;6.256;2023-06-10T12:06:49;51.30;24.90
3923;DHT22;1976;51.694;6.256;2023-06-10T12:11:45;51.60;25.10
3923;DHT22;1976;51.694;6.256;2023-06-10T12:14:13;50.80;23.80
3923;DHT22;1976;51.694;6.256;2023-06-10T12:16:39;50.40;24.40
3923;DHT22;1976;51.694;6.256;2023-06-10T12:19:05;50.70;24.80
3923;DHT22;1976;51.694;6.256;2023-06-10T12:21:33;50.70;24.10
3923;DHT22;1976;51.694;6.256;2023-06-10T12:29:11;50.90;24.80
3923;DHT22;1976;51.694;6.256;2023-06-10T12:34:18;51.30;24.40
3923;DHT22;1976;51.694;6.256;2023-06-10T12:36:48;51.40;24.40
3923;DHT22;1976;51.694;6.256;2023-06-10T12:39:14;51.40;24.30
3923;DHT22;1976;51.694;6.256;2023-06-10T12:41:40;51.50;24.80
3923;DHT22;1976;51.694;6.256;2023-06-10T12:44:06;51.50;24.60
3923;DHT22;1976;51.694;6.256;2023-06-10T12:46:37;51.60;24.30
3923;DHT22;1976;51.694;6.256;2023-06-10T12:49:03;51.60;24.20
3923;DHT22;1976;51.694;6.256;2023-06-10T12:51:29;51.50;24.00
3923;DHT22;1976;51.694;6.256;2023-06-10T12:53:54;51.60;23.90
3923;DHT22;1976;51.694;6.256;2023-06-10T12:56:20;51.70;23.80
3923;DHT22;1976;51.694;6.256;2023-06-10T12:58:47;51.70;23.70
3923;DHT22;1976;51.694;6.256;2023-06-10T13:01:13;51.70;23.90
3923;DHT22;1976;51.694;6.256;2023-06-10T13:03:39;51.80;23.90
3923;DHT22;1976;51.694;6.256;2023-06-10T13:06:06;51.80;23.10
3923;DHT22;1976;51.694;6.256;2023-06-10T13:08:32;51.70;23.60
3923;DHT22;1976;51.694;6.256;2023-06-10T13:10:58;51.80;23.70
3923;DHT22;1976;51.694;6.256;2023-06-10T13:13:23;52.00;23.50
3923;DHT22;1976;51.694;6.256;2023-06-10T13:15:49;52.40;23.30
3923;DHT22;1976;51.694;6.256;2023-06-10T13:18:15;52.30;22.80
3923;DHT22;1976;51.694;6.256;2023-06-10T13:20:44;52.00;22.70
3923;DHT22;1976;51.694;6.256;2023-06-10T13:23:09;52.00;23.60
3923;DHT22;1976;51.694;6.256;2023-06-10T13:25:35;52.00;22.90
3923;DHT22;1976;51.694;6.256;2023-06-10T13:28:01;51.90;23.10
3923;DHT22;1976;51.694;6.256;2023-06-10T13:30:28;52.00;23.70
3923;DHT22;1976;51.694;6.256;2023-06-10T13:32:54;51.50;23.20
3923;DHT22;1976;51.694;6.256;2023-06-10T13:35:19;50.80;23.20
3923;DHT22;1976;51.694;6.256;2023-06-10T13:37:45;50.80;23.70
3923;DHT22;1976;51.694;6.256;2023-06-10T13:40:11;50.80;23.00
3923;DHT22;1976;51.694;6.256;2023-06-10T13:42:37;50.90;23.20
3923;DHT22;1976;51.694;6.256;2023-06-10T13:45:03;51.00;23.00
3923;DHT22;1976;51.694;6.256;2023-06-10T13:47:29;50.90;23.00
3923;DHT22;1976;51.694;6.256;2023-06-10T13:49:55;51.00;23.30
3923;DHT22;1976;51.694;6.256;2023-06-10T13:52:20;51.00;23.50
3923;DHT22;1976;51.694;6.256;2023-06-10T13:54:46;51.10;23.10
3923;DHT22;1976;51.694;6.256;2023-06-10T13:57:12;51.10;23.30
3923;DHT22;1976;51.694;6.256;2023-06-10T13:59:37;51.00;22.80
3923;DHT22;1976;51.694;6.256;2023-06-10T14:02:03;51.00;23.00
3923;DHT22;1976;51.694;6.256;2023-06-10T14:04:29;50.50;22.00
3923;DHT22;1976;51.694;6.256;2023-06-10T14:06:55;50.50;22.40
3923;DHT22;1976;51.694;6.256;2023-06-10T14:11:47;47.00;23.30
3923;DHT22;1976;51.694;6.256;2023-06-10T14:14:13;46.90;24.10
3923;DHT22;1976;51.694;6.256;2023-06-10T14:23:57;48.20;24.00
3923;DHT22;1976;51.694;6.256;2023-06-10T14:26:23;48.30;24.50
3923;DHT22;1976;51.694;6.256;2023-06-10T14:28:49;48.30;24.00
3923;DHT22;1976;51.694;6.256;2023-06-10T14:36:09;44.90;23.40
3923;DHT22;1976;51.694;6.256;2023-06-10T14:38:35;44.20;24.10
3923;DHT22;1976;51.694;6.256;2023-06-10T14:41:00;43.90;25.20
3923;DHT22;1976;51.694;6.256;2023-06-10T14:53:16;45.60;25.30
3923;DHT22;1976;51.694;6.256;2023-06-10T14:55:42;45.70;25.10
3923;DHT22;1976;51.694;6.256;2023-06-10T14:58:08;45.80;24.90
3923;DHT22;1976;51.694;6.256;2023-06-10T15:00:33;45.80;25.20
3923;DHT22;1976;51.694;6.256;2023-06-10T15:02:59;45.70;24.60
3923;DHT22;1976;51.694;6.256;2023-06-10T15:05:24;45.70;24.60
3923;DHT22;1976;51.694;6.256;2023-06-10T15:07:50;45.70;24.80
3923;DHT22;1976;51.694;6.256;2023-06-10T15:10:16;45.60;25.20
3923;DHT22;1976;51.694;6.256;2023-06-10T15:12:42;45.50;25.10
3923;DHT22;1976;51.694;6.256;2023-06-10T15:17:33;45.50;24.90
3923;DHT22;1976;51.694;6.256;2023-06-10T15:22:25;45.00;24.70
3923;DHT22;1976;51.694;6.256;2023-06-10T15:24:50;44.60;25.50
3923;DHT22;1976;51.694;6.256;2023-06-10T15:27:16;44.40;25.70
3923;DHT22;1976;51.694;6.256;2023-06-10T15:29:42;44.30;25.60
3923;DHT22;1976;51.694;6.256;2023-06-10T15:32:08;44.30;26.00
3923;DHT22;1976;51.694;6.256;2023-06-10T15:34:33;43.90;25.60
3923;DHT22;1976;51.694;6.256;2023-06-10T15:41:52;43.30;26.10
3923;DHT22;1976;51.694;6.256;2023-06-10T15:44:18;43.20;26.40
3923;DHT22;1976;51.694;6.256;2023-06-10T15:49:10;42.90;26.60
3923;DHT22;1976;51.694;6.256;2023-06-10T15:54:02;42.50;27.10
3923;DHT22;1976;51.694;6.256;2023-06-10T16:03:45;41.70;27.20
3923;DHT22;1976;51.694;6.256;2023-06-10T16:06:11;41.50;27.60
3923;DHT22;1976;51.694;6.256;2023-06-10T16:08:37;41.30;27.80
3923;DHT22;1976;51.694;6.256;2023-06-10T16:13:29;41.00;28.00
3923;DHT22;1976;51.694;6.256;2023-06-10T16:18:21;40.60;28.30
3923;DHT22;1976;51.694;6.256;2023-06-10T16:23:13;40.10;29.00
3923;DHT22;1976;51.694;6.256;2023-06-10T16:28:05;39.70;29.20
3923;DHT22;1976;51.694;6.256;2023-06-10T16:30:32;39.50;29.90
3923;DHT22;1976;51.694;6.256;2023-06-10T16:42:42;38.60;30.00
3923;DHT22;1976;51.694;6.256;2023-06-10T16:45:08;38.40;30.60
3923;DHT22;1976;51.694;6.256;2023-06-10T16:52:34;37.80;30.60
3923;DHT22;1976;51.694;6.256;2023-06-10T16:55:00;37.60;31.00
3923;DHT22;1976;51.694;6.256;2023-06-10T16:57:28;37.40;30.40
3923;DHT22;1976;51.694;6.256;2023-06-10T16:59:53;37.20;30.90
3923;DHT22;1976;51.694;6.256;2023-06-10T17:02:19;37.10;31.50
3923;DHT22;1976;51.694;6.256;2023-06-10T17:04:45;36.80;31.40
3923;DHT22;1976;51.694;6.256;2023-06-10T17:07:10;36.80;31.90
3923;DHT22;1976;51.694;6.256;2023-06-10T17:09:36;36.10;31.90
3923;DHT22;1976;51.694;6.256;2023-06-10T17:12:02;36.10;32.50
3923;DHT22;1976;51.694;6.256;2023-06-10T17:14:31;35.60;34.10
3923;DHT22;1976;51.694;6.256;2023-06-10T17:16:57;35.40;34.80
3923;DHT22;1976;51.694;6.256;2023-06-10T17:19:24;35.20;34.50
3923;DHT22;1976;51.694;6.256;2023-06-10T17:21:50;35.10;35.20
3923;DHT22;1976;51.694;6.256;2023-06-10T17:26:42;34.60;34.30
3923;DHT22;1976;51.694;6.256;2023-06-10T17:29:07;34.50;34.50
3923;DHT22;1976;51.694;6.256;2023-06-10T17:31:34;34.50;34.90
3923;DHT22;1976;51.694;6.256;2023-06-10T17:33:59;34.30;35.20
3923;DHT22;1976;51.694;6.256;2023-06-10T17:36:25;34.20;35.90
3923;DHT22;1976;51.694;6.256;2023-06-10T17:38:50;34.00;36.40
3923;DHT22;1976;51.694;6.256;2023-06-10T17:41:16;33.90;36.60
3923;DHT22;1976;51.694;6.256;2023-06-10T17:43:41;33.70;36.70
3923;DHT22;1976;51.694;6.256;2023-06-10T17:46:07;33.60;37.30
3923;DHT22;1976;51.694;6.256;2023-06-10T17:48:33;33.50;36.70
3923;DHT22;1976;51.694;6.256;2023-06-10T17:50:58;33.40;37.10
3923;DHT22;1976;51.694;6.256;2023-06-10T17:53:24;33.30;37.30
3923;DHT22;1976;51.694;6.256;2023-06-10T17:55:50;33.20;38.20
3923;DHT22;1976;51.694;6.256;2023-06-10T17:58:15;33.10;38.00
3923;DHT22;1976;51.694;6.256;2023-06-10T18:00:41;33.00;38.20
3923;DHT22;1976;51.694;6.256;2023-06-10T18:03:07;32.90;38.10
3923;DHT22;1976;51.694;6.256;2023-06-10T18:05:32;32.70;38.10
3923;DHT22;1976;51.694;6.256;2023-06-10T18:07:58;32.60;38.80
3923;DHT22;1976;51.694;6.256;2023-06-10T18:10:23;32.50;39.70
3923;DHT22;1976;51.694;6.256;2023-06-10T18:12:49;32.40;39.80
3923;DHT22;1976;51.694;6.256;2023-06-10T18:15:14;32.30;40.20
3923;DHT22;1976;51.694;6.256;2023-06-10T18:17:40;32.20;40.20
3923;DHT22;1976;51.694;6.256;2023-06-10T18:20:06;32.10;40.30
3923;DHT22;1976;51.694;6.256;2023-06-10T18:22:32;32.00;40.40
3923;DHT22;1976;51.694;6.256;2023-06-10T18:24:58;31.80;41.10
3923;DHT22;1976;51.694;6.256;2023-06-10T18:27:24;31.70;41.00
3923;DHT22;1976;51.694;6.256;2023-06-10T18:29:49;31.60;41.40
3923;DHT22;1976;51.694;6.256;2023-06-10T18:32:15;31.60;41.90
3923;DHT22;1976;51.694;6.256;2023-06-10T18:34:41;31.50;42.10
3923;DHT22;1976;51.694;6.256;2023-06-10T18:37:07;31.30;42.20
3923;DHT22;1976;51.694;6.256;2023-06-10T18:39:34;31.20;42.40
3923;DHT22;1976;51.694;6.256;2023-06-10T18:42:00;31.10;42.90
3923;DHT22;1976;51.694;6.256;2023-06-10T18:44:27;31.00;43.20
3923;DHT22;1976;51.694;6.256;2023-06-10T18:46:53;30.80;43.80
3923;DHT22;1976;51.694;6.256;2023-06-10T18:49:18;30.80;44.50
3923;DHT22;1976;51.694;6.256;2023-06-10T18:51:44;30.50;44.00
3923;DHT22;1976;51.694;6.256;2023-06-10T18:54:10;30.50;44.50
3923;DHT22;1976;51.694;6.256;2023-06-10T18:56:35;30.40;44.70
3923;DHT22;1976;51.694;6.256;2023-06-10T18:59:01;30.30;45.10
3923;DHT22;1976;51.694;6.256;2023-06-10T19:01:27;30.10;44.70
3923;DHT22;1976;51.694;6.256;2023-06-10T19:03:52;30.00;45.00
3923;DHT22;1976;51.694;6.256;2023-06-10T19:06:18;29.90;45.10
3923;DHT22;1976;51.694;6.256;2023-06-10T19:11:10;29.70;45.50
3923;DHT22;1976;51.694;6.256;2023-06-10T19:20:55;29.40;46.60
3923;DHT22;1976;51.694;6.256;2023-06-10T19:23:21;29.30;47.10
3923;DHT22;1976;51.694;6.256;2023-06-10T19:25:46;29.30;47.30
3923;DHT22;1976;51.694;6.256;2023-06-10T19:28:12;29.20;47.30
3923;DHT22;1976;51.694;6.256;2023-06-10T19:30:38;29.10;47.20
3923;DHT22;1976;51.694;6.256;2023-06-10T19:33:03;29.00;47.80
3923;DHT22;1976;51.694;6.256;2023-06-10T19:35:29;28.90;48.60
3923;DHT22;1976;51.694;6.256;2023-06-10T19:37:55;28.80;48.40
3923;DHT22;1976;51.694;6.256;2023-06-10T19:40:20;28.70;48.60
3923;DHT22;1976;51.694;6.256;2023-06-10T19:42:46;28.50;48.80
3923;DHT22;1976;51.694;6.256;2023-06-10T19:45:12;28.40;49.20
3923;DHT22;1976;51.694;6.256;2023-06-10T19:47:38;28.30;50.40
3923;DHT22;1976;51.694;6.256;2023-06-10T19:50:04;28.20;50.60
3923;DHT22;1976;51.694;6.256;2023-06-10T19:52:29;28.10;50.40
3923;DHT22;1976;51.694;6.256;2023-06-10T19:54:56;28.00;50.90
3923;DHT22;1976;51.694;6.256;2023-06-10T19:57:22;27.90;51.20
3923;DHT22;1976;51.694;6.256;2023-06-10T19:59:48;27.80;51.60
3923;DHT22;1976;51.694;6.256;2023-06-10T20:02:13;27.70;52.00
3923;DHT22;1976;51.694;6.256;2023-06-10T20:04:39;27.50;52.50
3923;DHT22;1976;51.694;6.256;2023-06-10T20:07:04;27.50;53.00
3923;DHT22;1976;51.694;6.256;2023-06-10T20:09:30;27.30;53.30
3923;DHT22;1976;51.694;6.256;2023-06-10T20:11:56;27.20;53.70
3923;DHT22;1976;51.694;6.256;2023-06-10T20:14:21;27.10;53.90
3923;DHT22;1976;51.694;6.256;2023-06-10T20:16:48;27.00;54.20
3923;DHT22;1976;51.694;6.256;2023-06-10T20:19:13;26.90;54.90
3923;DHT22;1976;51.694;6.256;2023-06-10T20:21:39;26.90;54.80
3923;DHT22;1976;51.694;6.256;2023-06-10T20:24:05;26.70;54.90
3923;DHT22;1976;51.694;6.256;2023-06-10T20:26:32;26.60;55.00
3923;DHT22;1976;51.694;6.256;2023-06-10T20:28:57;26.50;55.20
3923;DHT22;1976;51.694;6.256;2023-06-10T20:31:23;26.40;55.40
3923;DHT22;1976;51.694;6.256;2023-06-10T20:33:52;26.30;55.70
3923;DHT22;1976;51.694;6.256;2023-06-10T20:38:44;26.10;56.20
3923;DHT22;1976;51.694;6.256;2023-06-10T20:43:37;26.00;56.60
3923;DHT22;1976;51.694;6.256;2023-06-10T20:48:29;25.90;57.30
3923;DHT22;1976;51.694;6.256;2023-06-10T20:53:21;25.60;58.20
3923;DHT22;1976;51.694;6.256;2023-06-10T20:55:47;25.60;58.50
3923;DHT22;1976;51.694;6.256;2023-06-10T21:12:50;25.30;61.00
3923;DHT22;1976;51.694;6.256;2023-06-10T21:15:16;25.20;62.10
3923;DHT22;1976;51.694;6.256;2023-06-10T21:17:42;22.70;60.50
3923;DHT22;1976;51.694;6.256;2023-06-10T21:22:34;25.10;63.50
3923;DHT22;1976;51.694;6.256;2023-06-10T21:25:00;25.10;65.30
3923;DHT22;1976;51.694;6.256;2023-06-10T21:27:26;25.10;65.60
3923;DHT22;1976;51.694;6.256;2023-06-10T21:29:51;25.00;65.90
3923;DHT22;1976;51.694;6.256;2023-06-10T21:32:17;25.00;66.80
3923;DHT22;1976;51.694;6.256;2023-06-10T21:34:43;24.90;67.00
3923;DHT22;1976;51.694;6.256;2023-06-10T21:37:08;24.90;67.70
3923;DHT22;1976;51.694;6.256;2023-06-10T21:39:34;24.80;68.30
3923;DHT22;1976;51.694;6.256;2023-06-10T21:41:59;24.80;69.20
3923;DHT22;1976;51.694;6.256;2023-06-10T21:44:25;24.70;69.40
3923;DHT22;1976;51.694;6.256;2023-06-10T21:46:51;24.70;69.80
3923;DHT22;1976;51.694;6.256;2023-06-10T21:49:17;24.60;70.60
3923;DHT22;1976;51.694;6.256;2023-06-10T21:51:43;24.60;71.20
3923;DHT22;1976;51.694;6.256;2023-06-10T21:54:10;24.60;71.90
3923;DHT22;1976;51.694;6.256;2023-06-10T21:56:36;24.60;72.60
3923;DHT22;1976;51.694;6.256;2023-06-10T21:59:02;24.60;73.20
3923;DHT22;1976;51.694;6.256;2023-06-10T22:01:29;24.50;73.80
3923;DHT22;1976;51.694;6.256;2023-06-10T22:03:57;24.50;74.40
3923;DHT22;1976;51.694;6.256;2023-06-10T22:06:22;24.50;74.60
3923;DHT22;1976;51.694;6.256;2023-06-10T22:08:48;24.40;75.10
3923;DHT22;1976;51.694;6.256;2023-06-10T22:11:14;24.40;75.90
3923;DHT22;1976;51.694;6.256;2023-06-10T22:13:39;24.40;76.40
3923;DHT22;1976;51.694;6.256;2023-06-10T22:16:05;24.30;77.30
3923;DHT22;1976;51.694;6.256;2023-06-10T22:42:54;23.90;82.30
3923;DHT22;1976;51.694;6.256;2023-06-10T22:50:14;23.70;84.40
3923;DHT22;1976;51.694;6.256;2023-06-10T23:04:52;23.20;89.30
3923;DHT22;1976;51.694;6.256;2023-06-10T23:07:18;23.20;89.90
3923;DHT22;1976;51.694;6.256;2023-06-10T23:14:37;23.10;90.90
3923;DHT22;1976;51.694;6.256;2023-06-10T23:17:03;23.00;91.20
3923;DHT22;1976;51.694;6.256;2023-06-10T23:19:29;22.90;91.40
3923;DHT22;1976;51.694;6.256;2023-06-10T23:34:13;22.80;92.60
3923;DHT22;1976;51.694;6.256;2023-06-10T23:51:24;22.80;93.50
